sensor_id;sensor_type;location;lat;lon;timestamp;P1;durP1;ratioP1;P2;durP2;ratioP2
48215;SDS011;34005;48.844;10.098;2024-02-14T00:00:07;3.03;;;1.60;;
48215;SDS011;34005;48.844;10.098;2024-02-14T00:02:39;3.58;;;1.90;;
48215;SDS011;34005;48.844;10.098;2024-02-14T00:05:07;4.40;;;1.83;;
48215;SDS011;34005;48.844;10.098;2024-02-14T00:07:36;3.97;;;1.88;;
48215;SDS011;34005;48.844;10.098;2024-02-14T00:10:05;5.65;;;1.77;;
48215;SDS011;34005;48.844;10.098;2024-02-14T00:12:33;5.50;;;2.08;;
48215;SDS011;34005;48.844;10.098;2024-02-14T00:15:03;4.22;;;2.13;;
48215;SDS011;34005;48.844;10.098;2024-02-14T00:17:32;5.90;;;2.53;;
48215;SDS011;34005;48.844;10.098;2024-02-14T00:20:01;5.47;;;2.50;;
48215;SDS011;34005;48.844;10.098;2024-02-14T00:22:29;4.53;;;2.13;;
48215;SDS011;34005;48.844;10.098;2024-02-14T00:24:57;5.70;;;2.30;;
48215;SDS011;34005;48.844;10.098;2024-02-14T00:27:24;5.80;;;2.08;;
48215;SDS011;34005;48.844;10.098;2024-02-14T00:29:53;3.22;;;2.13;;
48215;SDS011;34005;48.844;10.098;2024-02-14T00:32:22;3.10;;;1.88;;
48215;SDS011;34005;48.844;10.098;2024-02-14T00:34:50;3.97;;;1.60;;
48215;SDS011;34005;48.844;10.098;2024-02-14T00:37:18;3.50;;;2.15;;
48215;SDS011;34005;48.844;10.098;2024-02-14T00:39:46;4.40;;;2.65;;
48215;SDS011;34005;48.844;10.098;2024-02-14T00:42:16;5.65;;;2.78;;
48215;SDS011;34005;48.844;10.098;2024-02-14T00:44:44;7.60;;;2.90;;
48215;SDS011;34005;48.844;10.098;2024-02-14T00:47:11;7.25;;;2.40;;
48215;SDS011;34005;48.844;10.098;2024-02-14T00:49:40;4.80;;;2.22;;
48215;SDS011;34005;48.844;10.098;2024-02-14T00:52:08;9.18;;;2.70;;
48215;SDS011;34005;48.844;10.098;2024-02-14T00:54:35;5.80;;;2.20;;
48215;SDS011;34005;48.844;10.098;2024-02-14T00:57:03;5.78;;;2.70;;
48215;SDS011;34005;48.844;10.098;2024-02-14T00:59:31;4.57;;;2.58;;
48215;SDS011;34005;48.844;10.098;2024-02-14T01:01:59;5.50;;;2.92;;
48215;SDS011;34005;48.844;10.098;2024-02-14T01:04:26;7.40;;;3.58;;
48215;SDS011;34005;48.844;10.098;2024-02-14T01:06:55;17.80;;;4.07;;
48215;SDS011;34005;48.844;10.098;2024-02-14T01:09:23;5.78;;;3.38;;
48215;SDS011;34005;48.844;10.098;2024-02-14T01:11:50;6.20;;;3.42;;
48215;SDS011;34005;48.844;10.098;2024-02-14T01:14:18;5.13;;;2.45;;
48215;SDS011;34005;48.844;10.098;2024-02-14T01:16:45;6.82;;;2.92;;
48215;SDS011;34005;48.844;10.098;2024-02-14T01:19:13;6.03;;;3.05;;
48215;SDS011;34005;48.844;10.098;2024-02-14T01:21:41;8.13;;;2.70;;
48215;SDS011;34005;48.844;10.098;2024-02-14T01:24:10;6.57;;;2.53;;
48215;SDS011;34005;48.844;10.098;2024-02-14T01:26:38;8.57;;;3.03;;
48215;SDS011;34005;48.844;10.098;2024-02-14T01:29:06;6.30;;;3.40;;
48215;SDS011;34005;48.844;10.098;2024-02-14T01:31:34;9.07;;;2.90;;
48215;SDS011;34005;48.844;10.098;2024-02-14T01:34:01;6.75;;;2.65;;
48215;SDS011;34005;48.844;10.098;2024-02-14T01:36:29;5.43;;;2.42;;
48215;SDS011;34005;48.844;10.098;2024-02-14T01:38:57;6.15;;;2.88;;
48215;SDS011;34005;48.844;10.098;2024-02-14T01:41:26;5.55;;;2.55;;
48215;SDS011;34005;48.844;10.098;2024-02-14T01:43:54;4.80;;;2.75;;
48215;SDS011;34005;48.844;10.098;2024-02-14T01:46:21;5.47;;;2.75;;
48215;SDS011;34005;48.844;10.098;2024-02-14T01:48:49;4.63;;;2.60;;
48215;SDS011;34005;48.844;10.098;2024-02-14T01:51:17;3.90;;;2.25;;
48215;SDS011;34005;48.844;10.098;2024-02-14T01:53:47;6.18;;;2.33;;
48215;SDS011;34005;48.844;10.098;2024-02-14T01:56:15;5.00;;;2.33;;
48215;SDS011;34005;48.844;10.098;2024-02-14T01:58:45;5.78;;;2.47;;
48215;SDS011;34005;48.844;10.098;2024-02-14T02:01:13;4.63;;;2.42;;
48215;SDS011;34005;48.844;10.098;2024-02-14T02:03:44;5.32;;;2.53;;
48215;SDS011;34005;48.844;10.098;2024-02-14T02:06:11;6.38;;;2.55;;
48215;SDS011;34005;48.844;10.098;2024-02-14T02:08:41;7.05;;;2.92;;
48215;SDS011;34005;48.844;10.098;2024-02-14T02:11:10;5.82;;;3.00;;
48215;SDS011;34005;48.844;10.098;2024-02-14T02:13:37;8.98;;;3.83;;
48215;SDS011;34005;48.844;10.098;2024-02-14T02:16:07;8.40;;;3.35;;
48215;SDS011;34005;48.844;10.098;2024-02-14T02:18:35;9.02;;;4.35;;
48215;SDS011;34005;48.844;10.098;2024-02-14T02:21:03;6.95;;;3.78;;
48215;SDS011;34005;48.844;10.098;2024-02-14T02:23:34;5.05;;;2.72;;
48215;SDS011;34005;48.844;10.098;2024-02-14T02:26:02;9.25;;;3.22;;
48215;SDS011;34005;48.844;10.098;2024-02-14T02:28:30;4.18;;;2.78;;
48215;SDS011;34005;48.844;10.098;2024-02-14T02:30:57;4.68;;;2.28;;
48215;SDS011;34005;48.844;10.098;2024-02-14T02:33:25;6.70;;;3.08;;
48215;SDS011;34005;48.844;10.098;2024-02-14T02:35:54;7.72;;;3.47;;
48215;SDS011;34005;48.844;10.098;2024-02-14T02:38:21;6.35;;;3.38;;
48215;SDS011;34005;48.844;10.098;2024-02-14T02:40:50;7.35;;;3.20;;
48215;SDS011;34005;48.844;10.098;2024-02-14T02:43:18;7.00;;;2.80;;
48215;SDS011;34005;48.844;10.098;2024-02-14T02:45:45;5.60;;;2.30;;
48215;SDS011;34005;48.844;10.098;2024-02-14T02:48:13;5.15;;;2.47;;
48215;SDS011;34005;48.844;10.098;2024-02-14T02:50:41;4.18;;;2.30;;
48215;SDS011;34005;48.844;10.098;2024-02-14T02:53:11;6.85;;;2.72;;
48215;SDS011;34005;48.844;10.098;2024-02-14T02:55:38;6.07;;;2.10;;
48215;SDS011;34005;48.844;10.098;2024-02-14T02:58:07;5.55;;;2.50;;
48215;SDS011;34005;48.844;10.098;2024-02-14T03:00:35;7.45;;;2.60;;
48215;SDS011;34005;48.844;10.098;2024-02-14T03:03:03;4.72;;;2.75;;
48215;SDS011;34005;48.844;10.098;2024-02-14T03:05:34;4.70;;;2.70;;
48215;SDS011;34005;48.844;10.098;2024-02-14T03:08:02;7.00;;;2.80;;
48215;SDS011;34005;48.844;10.098;2024-02-14T03:10:31;7.15;;;2.55;;
48215;SDS011;34005;48.844;10.098;2024-02-14T03:12:58;3.65;;;2.33;;
48215;SDS011;34005;48.844;10.098;2024-02-14T03:15:27;8.07;;;2.80;;
48215;SDS011;34005;48.844;10.098;2024-02-14T03:17:55;6.88;;;2.28;;
48215;SDS011;34005;48.844;10.098;2024-02-14T03:20:22;6.38;;;2.55;;
48215;SDS011;34005;48.844;10.098;2024-02-14T03:22:50;4.35;;;2.10;;
48215;SDS011;34005;48.844;10.098;2024-02-14T03:25:20;4.85;;;2.55;;
48215;SDS011;34005;48.844;10.098;2024-02-14T03:27:47;5.57;;;2.15;;
48215;SDS011;34005;48.844;10.098;2024-02-14T03:30:19;7.43;;;2.03;;
48215;SDS011;34005;48.844;10.098;2024-02-14T03:32:48;4.78;;;2.20;;
48215;SDS011;34005;48.844;10.098;2024-02-14T03:35:16;3.85;;;1.80;;
48215;SDS011;34005;48.844;10.098;2024-02-14T03:37:45;8.02;;;2.03;;
48215;SDS011;34005;48.844;10.098;2024-02-14T03:40:15;3.83;;;1.80;;
48215;SDS011;34005;48.844;10.098;2024-02-14T03:42:43;4.82;;;2.25;;
48215;SDS011;34005;48.844;10.098;2024-02-14T03:45:10;4.20;;;2.13;;
48215;SDS011;34005;48.844;10.098;2024-02-14T03:47:38;7.13;;;2.58;;
48215;SDS011;34005;48.844;10.098;2024-02-14T03:50:09;7.40;;;1.95;;
48215;SDS011;34005;48.844;10.098;2024-02-14T03:52:37;7.45;;;2.33;;
48215;SDS011;34005;48.844;10.098;2024-02-14T03:55:05;4.85;;;2.35;;
48215;SDS011;34005;48.844;10.098;2024-02-14T03:57:35;3.75;;;1.92;;
48215;SDS011;34005;48.844;10.098;2024-02-14T04:00:05;4.72;;;2.90;;
48215;SDS011;34005;48.844;10.098;2024-02-14T04:02:36;7.53;;;3.35;;
48215;SDS011;34005;48.844;10.098;2024-02-14T04:05:06;7.75;;;3.65;;
48215;SDS011;34005;48.844;10.098;2024-02-14T04:07:36;8.93;;;3.20;;
48215;SDS011;34005;48.844;10.098;2024-02-14T04:10:04;6.57;;;3.15;;
48215;SDS011;34005;48.844;10.098;2024-02-14T04:12:33;5.65;;;2.85;;
48215;SDS011;34005;48.844;10.098;2024-02-14T04:15:00;9.02;;;2.60;;
48215;SDS011;34005;48.844;10.098;2024-02-14T04:17:28;4.15;;;2.05;;
48215;SDS011;34005;48.844;10.098;2024-02-14T04:19:56;3.70;;;1.85;;
48215;SDS011;34005;48.844;10.098;2024-02-14T04:22:24;5.35;;;2.28;;
48215;SDS011;34005;48.844;10.098;2024-02-14T04:24:52;4.45;;;2.10;;
48215;SDS011;34005;48.844;10.098;2024-02-14T04:27:20;8.77;;;2.58;;
48215;SDS011;34005;48.844;10.098;2024-02-14T04:29:48;4.88;;;2.72;;
48215;SDS011;34005;48.844;10.098;2024-02-14T04:32:15;5.03;;;2.03;;
48215;SDS011;34005;48.844;10.098;2024-02-14T04:34:43;3.85;;;2.22;;
48215;SDS011;34005;48.844;10.098;2024-02-14T04:37:11;3.55;;;2.00;;
48215;SDS011;34005;48.844;10.098;2024-02-14T04:39:40;4.75;;;2.22;;
48215;SDS011;34005;48.844;10.098;2024-02-14T04:42:09;9.20;;;2.85;;
48215;SDS011;34005;48.844;10.098;2024-02-14T04:44:37;6.10;;;2.20;;
48215;SDS011;34005;48.844;10.098;2024-02-14T04:47:05;4.88;;;2.30;;
48215;SDS011;34005;48.844;10.098;2024-02-14T04:49:35;6.80;;;2.70;;
48215;SDS011;34005;48.844;10.098;2024-02-14T04:52:03;3.42;;;2.08;;
48215;SDS011;34005;48.844;10.098;2024-02-14T04:54:31;3.17;;;2.20;;
48215;SDS011;34005;48.844;10.098;2024-02-14T04:56:59;5.40;;;2.63;;
48215;SDS011;34005;48.844;10.098;2024-02-14T04:59:30;10.23;;;3.20;;
48215;SDS011;34005;48.844;10.098;2024-02-14T05:01:58;5.38;;;3.25;;
48215;SDS011;34005;48.844;10.098;2024-02-14T05:04:26;4.47;;;2.88;;
48215;SDS011;34005;48.844;10.098;2024-02-14T05:06:54;4.20;;;2.42;;
48215;SDS011;34005;48.844;10.098;2024-02-14T05:09:24;6.22;;;3.20;;
48215;SDS011;34005;48.844;10.098;2024-02-14T05:11:52;7.53;;;3.47;;
48215;SDS011;34005;48.844;10.098;2024-02-14T05:14:20;3.20;;;2.50;;
48215;SDS011;34005;48.844;10.098;2024-02-14T05:16:49;6.28;;;2.60;;
48215;SDS011;34005;48.844;10.098;2024-02-14T05:19:17;3.72;;;2.30;;
48215;SDS011;34005;48.844;10.098;2024-02-14T05:21:45;3.78;;;2.10;;
48215;SDS011;34005;48.844;10.098;2024-02-14T05:24:13;2.88;;;2.10;;
48215;SDS011;34005;48.844;10.098;2024-02-14T05:26:41;6.22;;;2.85;;
48215;SDS011;34005;48.844;10.098;2024-02-14T05:29:08;10.30;;;2.65;;
48215;SDS011;34005;48.844;10.098;2024-02-14T05:31:42;3.53;;;2.85;;
48215;SDS011;34005;48.844;10.098;2024-02-14T05:34:13;5.00;;;2.53;;
48215;SDS011;34005;48.844;10.098;2024-02-14T05:36:41;4.95;;;3.03;;
48215;SDS011;34005;48.844;10.098;2024-02-14T05:39:12;4.72;;;2.67;;
48215;SDS011;34005;48.844;10.098;2024-02-14T05:41:40;6.90;;;2.33;;
48215;SDS011;34005;48.844;10.098;2024-02-14T05:44:08;8.05;;;2.72;;
48215;SDS011;34005;48.844;10.098;2024-02-14T05:46:35;2.75;;;1.90;;
48215;SDS011;34005;48.844;10.098;2024-02-14T05:49:03;7.97;;;3.67;;
48215;SDS011;34005;48.844;10.098;2024-02-14T05:51:32;16.98;;;8.18;;
48215;SDS011;34005;48.844;10.098;2024-02-14T05:53:59;12.45;;;5.47;;
48215;SDS011;34005;48.844;10.098;2024-02-14T05:56:27;7.30;;;3.50;;
48215;SDS011;34005;48.844;10.098;2024-02-14T05:58:55;5.30;;;3.15;;
48215;SDS011;34005;48.844;10.098;2024-02-14T06:01:22;7.05;;;2.63;;
48215;SDS011;34005;48.844;10.098;2024-02-14T06:03:50;5.22;;;1.90;;
48215;SDS011;34005;48.844;10.098;2024-02-14T06:06:17;8.10;;;2.08;;
48215;SDS011;34005;48.844;10.098;2024-02-14T06:08:47;5.35;;;2.50;;
48215;SDS011;34005;48.844;10.098;2024-02-14T06:11:14;3.28;;;2.28;;
48215;SDS011;34005;48.844;10.098;2024-02-14T06:13:42;6.15;;;2.60;;
48215;SDS011;34005;48.844;10.098;2024-02-14T06:16:10;5.35;;;2.60;;
48215;SDS011;34005;48.844;10.098;2024-02-14T06:18:38;5.38;;;2.92;;
48215;SDS011;34005;48.844;10.098;2024-02-14T06:21:07;4.75;;;2.90;;
48215;SDS011;34005;48.844;10.098;2024-02-14T06:23:34;5.55;;;2.50;;
48215;SDS011;34005;48.844;10.098;2024-02-14T06:26:04;3.15;;;2.13;;
48215;SDS011;34005;48.844;10.098;2024-02-14T06:28:32;9.05;;;2.65;;
48215;SDS011;34005;48.844;10.098;2024-02-14T06:31:06;2.58;;;2.00;;
48215;SDS011;34005;48.844;10.098;2024-02-14T06:33:33;8.23;;;2.60;;
48215;SDS011;34005;48.844;10.098;2024-02-14T06:36:01;4.50;;;2.33;;
48215;SDS011;34005;48.844;10.098;2024-02-14T06:38:30;6.80;;;2.25;;
48215;SDS011;34005;48.844;10.098;2024-02-14T06:40:58;5.32;;;2.42;;
48215;SDS011;34005;48.844;10.098;2024-02-14T06:43:28;5.07;;;2.08;;
48215;SDS011;34005;48.844;10.098;2024-02-14T06:45:55;5.13;;;2.55;;
48215;SDS011;34005;48.844;10.098;2024-02-14T06:48:23;5.68;;;2.65;;
48215;SDS011;34005;48.844;10.098;2024-02-14T06:50:52;6.40;;;2.40;;
48215;SDS011;34005;48.844;10.098;2024-02-14T06:58:59;6.97;;;2.55;;
48215;SDS011;34005;48.844;10.098;2024-02-14T07:12:31;4.80;;;2.03;;
48215;SDS011;34005;48.844;10.098;2024-02-14T07:15:01;3.75;;;2.15;;
48215;SDS011;34005;48.844;10.098;2024-02-14T07:17:31;4.80;;;2.60;;
48215;SDS011;34005;48.844;10.098;2024-02-14T07:19:59;6.28;;;3.08;;
48215;SDS011;34005;48.844;10.098;2024-02-14T07:22:27;4.82;;;3.55;;
48215;SDS011;34005;48.844;10.098;2024-02-14T07:24:56;6.07;;;3.90;;
48215;SDS011;34005;48.844;10.098;2024-02-14T07:27:24;4.78;;;3.53;;
48215;SDS011;34005;48.844;10.098;2024-02-14T07:29:53;5.93;;;3.38;;
48215;SDS011;34005;48.844;10.098;2024-02-14T07:32:23;6.80;;;3.38;;
48215;SDS011;34005;48.844;10.098;2024-02-14T07:34:51;8.18;;;4.45;;
48215;SDS011;34005;48.844;10.098;2024-02-14T07:37:19;8.95;;;3.97;;
48215;SDS011;34005;48.844;10.098;2024-02-14T07:39:46;6.05;;;2.78;;
48215;SDS011;34005;48.844;10.098;2024-02-14T07:42:14;8.15;;;2.80;;
48215;SDS011;34005;48.844;10.098;2024-02-14T07:44:42;4.70;;;2.50;;
48215;SDS011;34005;48.844;10.098;2024-02-14T07:47:13;4.15;;;2.17;;
48215;SDS011;34005;48.844;10.098;2024-02-14T07:49:44;5.38;;;2.60;;
48215;SDS011;34005;48.844;10.098;2024-02-14T07:55:01;4.45;;;2.42;;
48215;SDS011;34005;48.844;10.098;2024-02-14T07:57:28;8.32;;;2.92;;
48215;SDS011;34005;48.844;10.098;2024-02-14T07:59:56;3.35;;;2.28;;
48215;SDS011;34005;48.844;10.098;2024-02-14T08:02:23;5.22;;;2.30;;
48215;SDS011;34005;48.844;10.098;2024-02-14T08:04:55;5.03;;;2.08;;
48215;SDS011;34005;48.844;10.098;2024-02-14T08:07:22;6.95;;;2.15;;
48215;SDS011;34005;48.844;10.098;2024-02-14T08:09:50;3.83;;;2.03;;
48215;SDS011;34005;48.844;10.098;2024-02-14T08:12:18;5.22;;;2.00;;
48215;SDS011;34005;48.844;10.098;2024-02-14T08:14:45;3.05;;;2.17;;
48215;SDS011;34005;48.844;10.098;2024-02-14T08:17:17;5.53;;;2.80;;
48215;SDS011;34005;48.844;10.098;2024-02-14T08:19:44;9.82;;;3.78;;
48215;SDS011;34005;48.844;10.098;2024-02-14T08:22:14;6.28;;;3.65;;
48215;SDS011;34005;48.844;10.098;2024-02-14T08:24:41;7.22;;;3.33;;
48215;SDS011;34005;48.844;10.098;2024-02-14T08:27:09;6.25;;;3.60;;
48215;SDS011;34005;48.844;10.098;2024-02-14T08:29:37;5.78;;;3.08;;
48215;SDS011;34005;48.844;10.098;2024-02-14T08:32:04;9.20;;;4.68;;
48215;SDS011;34005;48.844;10.098;2024-02-14T08:34:32;9.07;;;4.18;;
48215;SDS011;34005;48.844;10.098;2024-02-14T08:37:00;7.25;;;3.45;;
48215;SDS011;34005;48.844;10.098;2024-02-14T08:39:29;10.20;;;4.57;;
48215;SDS011;34005;48.844;10.098;2024-02-14T08:41:57;9.27;;;5.38;;
48215;SDS011;34005;48.844;10.098;2024-02-14T08:44:28;7.88;;;3.33;;
48215;SDS011;34005;48.844;10.098;2024-02-14T08:46:55;6.32;;;2.85;;
48215;SDS011;34005;48.844;10.098;2024-02-14T08:49:23;7.25;;;2.80;;
48215;SDS011;34005;48.844;10.098;2024-02-14T08:51:51;6.30;;;3.30;;
48215;SDS011;34005;48.844;10.098;2024-02-14T08:54:18;6.78;;;2.72;;
48215;SDS011;34005;48.844;10.098;2024-02-14T08:56:49;4.75;;;2.70;;
48215;SDS011;34005;48.844;10.098;2024-02-14T08:59:19;8.43;;;3.58;;
48215;SDS011;34005;48.844;10.098;2024-02-14T09:01:46;5.75;;;3.05;;
48215;SDS011;34005;48.844;10.098;2024-02-14T09:04:14;3.42;;;2.55;;
48215;SDS011;34005;48.844;10.098;2024-02-14T09:06:42;3.40;;;2.20;;
48215;SDS011;34005;48.844;10.098;2024-02-14T09:09:09;6.72;;;3.38;;
48215;SDS011;34005;48.844;10.098;2024-02-14T09:11:38;7.55;;;2.67;;
48215;SDS011;34005;48.844;10.098;2024-02-14T09:14:08;7.25;;;2.65;;
48215;SDS011;34005;48.844;10.098;2024-02-14T09:16:36;5.57;;;2.95;;
48215;SDS011;34005;48.844;10.098;2024-02-14T09:19:04;7.55;;;3.08;;
48215;SDS011;34005;48.844;10.098;2024-02-14T09:21:34;8.25;;;3.58;;
48215;SDS011;34005;48.844;10.098;2024-02-14T09:24:01;5.85;;;2.63;;
48215;SDS011;34005;48.844;10.098;2024-02-14T09:26:30;3.55;;;2.13;;
48215;SDS011;34005;48.844;10.098;2024-02-14T09:28:57;6.50;;;2.60;;
48215;SDS011;34005;48.844;10.098;2024-02-14T09:31:26;6.10;;;2.40;;
48215;SDS011;34005;48.844;10.098;2024-02-14T09:33:54;6.60;;;2.40;;
48215;SDS011;34005;48.844;10.098;2024-02-14T09:36:24;4.30;;;2.72;;
48215;SDS011;34005;48.844;10.098;2024-02-14T09:38:52;4.47;;;2.70;;
48215;SDS011;34005;48.844;10.098;2024-02-14T09:41:22;4.32;;;2.90;;
48215;SDS011;34005;48.844;10.098;2024-02-14T09:43:52;4.77;;;2.53;;
48215;SDS011;34005;48.844;10.098;2024-02-14T09:46:20;13.75;;;3.08;;
48215;SDS011;34005;48.844;10.098;2024-02-14T09:48:52;7.50;;;3.13;;
48215;SDS011;34005;48.844;10.098;2024-02-14T09:51:22;6.72;;;3.05;;
48215;SDS011;34005;48.844;10.098;2024-02-14T09:53:53;8.13;;;2.88;;
48215;SDS011;34005;48.844;10.098;2024-02-14T09:56:21;5.53;;;2.53;;
48215;SDS011;34005;48.844;10.098;2024-02-14T09:58:50;7.32;;;3.00;;
48215;SDS011;34005;48.844;10.098;2024-02-14T10:01:22;5.50;;;1.88;;
48215;SDS011;34005;48.844;10.098;2024-02-14T10:03:50;2.38;;;1.23;;
48215;SDS011;34005;48.844;10.098;2024-02-14T10:06:20;2.25;;;1.10;;
48215;SDS011;34005;48.844;10.098;2024-02-14T10:08:48;1.60;;;1.25;;
48215;SDS011;34005;48.844;10.098;2024-02-14T10:11:29;4.47;;;1.20;;
48215;SDS011;34005;48.844;10.098;2024-02-14T10:13:58;7.18;;;1.52;;
48215;SDS011;34005;48.844;10.098;2024-02-14T10:16:29;2.30;;;1.20;;
48215;SDS011;34005;48.844;10.098;2024-02-14T10:18:56;2.85;;;1.20;;
48215;SDS011;34005;48.844;10.098;2024-02-14T10:21:26;1.40;;;1.30;;
48215;SDS011;34005;48.844;10.098;2024-02-14T10:23:55;1.98;;;1.48;;
48215;SDS011;34005;48.844;10.098;2024-02-14T10:26:24;5.15;;;1.45;;
48215;SDS011;34005;48.844;10.098;2024-02-14T10:28:52;1.95;;;1.13;;
48215;SDS011;34005;48.844;10.098;2024-02-14T10:31:19;3.22;;;1.50;;
48215;SDS011;34005;48.844;10.098;2024-02-14T10:33:47;2.05;;;1.40;;
48215;SDS011;34005;48.844;10.098;2024-02-14T10:36:15;2.50;;;1.50;;
48215;SDS011;34005;48.844;10.098;2024-02-14T10:38:46;1.90;;;1.35;;
48215;SDS011;34005;48.844;10.098;2024-02-14T10:41:16;3.95;;;1.35;;
48215;SDS011;34005;48.844;10.098;2024-02-14T10:43:44;3.90;;;1.40;;
48215;SDS011;34005;48.844;10.098;2024-02-14T10:46:15;3.72;;;1.85;;
48215;SDS011;34005;48.844;10.098;2024-02-14T10:48:47;3.92;;;1.73;;
48215;SDS011;34005;48.844;10.098;2024-02-14T10:51:16;3.97;;;1.95;;
48215;SDS011;34005;48.844;10.098;2024-02-14T10:53:46;2.47;;;1.42;;
48215;SDS011;34005;48.844;10.098;2024-02-14T10:56:17;3.17;;;1.65;;
48215;SDS011;34005;48.844;10.098;2024-02-14T10:58:46;3.65;;;1.85;;
48215;SDS011;34005;48.844;10.098;2024-02-14T11:01:15;3.88;;;1.52;;
48215;SDS011;34005;48.844;10.098;2024-02-14T11:03:44;1.73;;;1.23;;
48215;SDS011;34005;48.844;10.098;2024-02-14T11:06:15;3.10;;;1.45;;
48215;SDS011;34005;48.844;10.098;2024-02-14T11:08:56;3.50;;;1.40;;
48215;SDS011;34005;48.844;10.098;2024-02-14T11:11:24;3.38;;;1.48;;
48215;SDS011;34005;48.844;10.098;2024-02-14T11:13:52;3.85;;;2.15;;
48215;SDS011;34005;48.844;10.098;2024-02-14T11:16:23;2.38;;;1.90;;
48215;SDS011;34005;48.844;10.098;2024-02-14T11:18:54;3.90;;;1.23;;
48215;SDS011;34005;48.844;10.098;2024-02-14T11:21:35;2.20;;;1.42;;
48215;SDS011;34005;48.844;10.098;2024-02-14T11:24:09;1.95;;;1.38;;
48215;SDS011;34005;48.844;10.098;2024-02-14T11:26:45;4.50;;;2.15;;
48215;SDS011;34005;48.844;10.098;2024-02-14T11:29:15;3.00;;;1.75;;
48215;SDS011;34005;48.844;10.098;2024-02-14T11:34:16;6.47;;;2.92;;
48215;SDS011;34005;48.844;10.098;2024-02-14T11:36:51;21.42;;;5.50;;
48215;SDS011;34005;48.844;10.098;2024-02-14T11:39:43;1.98;;;1.10;;
48215;SDS011;34005;48.844;10.098;2024-02-14T11:42:13;5.13;;;1.40;;
48215;SDS011;34005;48.844;10.098;2024-02-14T11:44:41;2.67;;;1.40;;
48215;SDS011;34005;48.844;10.098;2024-02-14T11:47:09;1.55;;;0.95;;
48215;SDS011;34005;48.844;10.098;2024-02-14T11:49:37;2.42;;;1.40;;
48215;SDS011;34005;48.844;10.098;2024-02-14T11:52:09;3.03;;;1.40;;
48215;SDS011;34005;48.844;10.098;2024-02-14T11:54:36;3.42;;;1.00;;
48215;SDS011;34005;48.844;10.098;2024-02-14T11:57:06;2.00;;;0.80;;
48215;SDS011;34005;48.844;10.098;2024-02-14T11:59:34;1.35;;;1.00;;
48215;SDS011;34005;48.844;10.098;2024-02-14T12:02:02;1.73;;;1.10;;
48215;SDS011;34005;48.844;10.098;2024-02-14T12:04:30;2.08;;;0.80;;
48215;SDS011;34005;48.844;10.098;2024-02-14T12:07:00;2.38;;;1.27;;
48215;SDS011;34005;48.844;10.098;2024-02-14T12:09:28;1.20;;;0.90;;
48215;SDS011;34005;48.844;10.098;2024-02-14T12:11:56;1.08;;;0.77;;
48215;SDS011;34005;48.844;10.098;2024-02-14T12:14:26;1.73;;;0.77;;
48215;SDS011;34005;48.844;10.098;2024-02-14T12:16:56;1.55;;;0.70;;
48215;SDS011;34005;48.844;10.098;2024-02-14T12:19:26;1.13;;;0.70;;
48215;SDS011;34005;48.844;10.098;2024-02-14T12:21:58;1.98;;;0.75;;
48215;SDS011;34005;48.844;10.098;2024-02-14T12:24:27;2.22;;;0.77;;
48215;SDS011;34005;48.844;10.098;2024-02-14T12:26:56;0.98;;;0.60;;
48215;SDS011;34005;48.844;10.098;2024-02-14T12:29:25;1.25;;;0.85;;
48215;SDS011;34005;48.844;10.098;2024-02-14T12:32:02;2.45;;;0.95;;
48215;SDS011;34005;48.844;10.098;2024-02-14T12:34:31;0.60;;;0.60;;
48215;SDS011;34005;48.844;10.098;2024-02-14T12:36:59;1.92;;;0.90;;
48215;SDS011;34005;48.844;10.098;2024-02-14T12:39:27;1.38;;;0.73;;
48215;SDS011;34005;48.844;10.098;2024-02-14T12:41:55;0.82;;;0.70;;
48215;SDS011;34005;48.844;10.098;2024-02-14T12:44:23;3.22;;;0.80;;
48215;SDS011;34005;48.844;10.098;2024-02-14T12:46:52;2.25;;;0.85;;
48215;SDS011;34005;48.844;10.098;2024-02-14T12:49:20;5.40;;;1.20;;
48215;SDS011;34005;48.844;10.098;2024-02-14T12:51:48;0.90;;;0.60;;
48215;SDS011;34005;48.844;10.098;2024-02-14T12:54:16;1.65;;;0.93;;
48215;SDS011;34005;48.844;10.098;2024-02-14T12:56:44;1.73;;;1.27;;
48215;SDS011;34005;48.844;10.098;2024-02-14T12:59:14;2.65;;;1.05;;
48215;SDS011;34005;48.844;10.098;2024-02-14T13:01:45;2.25;;;0.82;;
48215;SDS011;34005;48.844;10.098;2024-02-14T13:04:15;0.98;;;0.70;;
48215;SDS011;34005;48.844;10.098;2024-02-14T13:06:43;1.23;;;0.75;;
48215;SDS011;34005;48.844;10.098;2024-02-14T13:09:13;1.83;;;0.70;;
48215;SDS011;34005;48.844;10.098;2024-02-14T13:11:42;1.17;;;0.57;;
48215;SDS011;34005;48.844;10.098;2024-02-14T13:14:10;1.63;;;1.02;;
48215;SDS011;34005;48.844;10.098;2024-02-14T13:16:37;1.45;;;0.80;;
48215;SDS011;34005;48.844;10.098;2024-02-14T13:19:05;2.03;;;0.73;;
48215;SDS011;34005;48.844;10.098;2024-02-14T13:21:35;2.80;;;0.73;;
48215;SDS011;34005;48.844;10.098;2024-02-14T13:24:03;1.73;;;0.70;;
48215;SDS011;34005;48.844;10.098;2024-02-14T13:26:31;0.70;;;0.60;;
48215;SDS011;34005;48.844;10.098;2024-02-14T13:29:00;0.85;;;0.70;;
48215;SDS011;34005;48.844;10.098;2024-02-14T13:31:28;2.50;;;0.85;;
48215;SDS011;34005;48.844;10.098;2024-02-14T13:33:55;1.48;;;0.77;;
48215;SDS011;34005;48.844;10.098;2024-02-14T13:36:23;2.25;;;0.75;;
48215;SDS011;34005;48.844;10.098;2024-02-14T13:38:53;1.42;;;0.65;;
48215;SDS011;34005;48.844;10.098;2024-02-14T13:41:20;2.88;;;0.77;;
48215;SDS011;34005;48.844;10.098;2024-02-14T13:43:48;1.02;;;0.80;;
48215;SDS011;34005;48.844;10.098;2024-02-14T13:46:15;1.10;;;1.00;;
48215;SDS011;34005;48.844;10.098;2024-02-14T13:48:44;2.25;;;0.80;;
48215;SDS011;34005;48.844;10.098;2024-02-14T13:51:12;2.88;;;0.70;;
48215;SDS011;34005;48.844;10.098;2024-02-14T13:53:39;1.00;;;0.70;;
48215;SDS011;34005;48.844;10.098;2024-02-14T13:56:08;1.77;;;0.90;;
48215;SDS011;34005;48.844;10.098;2024-02-14T13:58:36;0.70;;;0.70;;
48215;SDS011;34005;48.844;10.098;2024-02-14T14:01:04;1.35;;;0.73;;
48215;SDS011;34005;48.844;10.098;2024-02-14T14:03:33;5.55;;;0.70;;
48215;SDS011;34005;48.844;10.098;2024-02-14T14:06:02;1.27;;;0.57;;
48215;SDS011;34005;48.844;10.098;2024-02-14T14:08:32;1.08;;;0.30;;
48215;SDS011;34005;48.844;10.098;2024-02-14T14:11:02;1.13;;;0.60;;
48215;SDS011;34005;48.844;10.098;2024-02-14T14:13:31;0.93;;;0.40;;
48215;SDS011;34005;48.844;10.098;2024-02-14T14:15:59;0.70;;;0.30;;
48215;SDS011;34005;48.844;10.098;2024-02-14T14:18:27;1.50;;;0.60;;
48215;SDS011;34005;48.844;10.098;2024-02-14T14:20:55;0.50;;;0.50;;
48215;SDS011;34005;48.844;10.098;2024-02-14T14:23:22;1.88;;;0.68;;
48215;SDS011;34005;48.844;10.098;2024-02-14T14:25:50;1.63;;;0.50;;
48215;SDS011;34005;48.844;10.098;2024-02-14T14:28:17;2.38;;;1.10;;
48215;SDS011;34005;48.844;10.098;2024-02-14T14:30:52;1.13;;;0.90;;
48215;SDS011;34005;48.844;10.098;2024-02-14T14:33:20;1.48;;;1.00;;
48215;SDS011;34005;48.844;10.098;2024-02-14T14:35:48;1.98;;;0.77;;
48215;SDS011;34005;48.844;10.098;2024-02-14T14:38:18;1.38;;;1.02;;
48215;SDS011;34005;48.844;10.098;2024-02-14T14:40:46;1.45;;;1.05;;
48215;SDS011;34005;48.844;10.098;2024-02-14T14:43:13;3.83;;;1.05;;
48215;SDS011;34005;48.844;10.098;2024-02-14T14:45:45;2.63;;;1.23;;
48215;SDS011;34005;48.844;10.098;2024-02-14T14:48:17;0.63;;;0.50;;
48215;SDS011;34005;48.844;10.098;2024-02-14T14:50:44;0.47;;;0.43;;
48215;SDS011;34005;48.844;10.098;2024-02-14T14:53:12;2.95;;;0.60;;
48215;SDS011;34005;48.844;10.098;2024-02-14T14:55:50;2.75;;;0.57;;
48215;SDS011;34005;48.844;10.098;2024-02-14T14:58:18;0.82;;;0.50;;
48215;SDS011;34005;48.844;10.098;2024-02-14T15:00:48;0.52;;;0.52;;
48215;SDS011;34005;48.844;10.098;2024-02-14T15:03:17;2.00;;;0.50;;